createdAt,value
2022-10-08T00:01:07.091Z,98969.91
2022-10-08T00:03:37.725Z,98873.03
2022-10-08T00:06:12.427Z,98998.53
2022-10-08T00:08:41.675Z,99008.16
2022-10-08T00:11:11.183Z,98961.28
2022-10-08T00:13:40.992Z,98816.78
2022-10-08T00:16:12.660Z,99003.03
2022-10-08T00:18:44.858Z,98983.81
2022-10-08T00:21:16.543Z,98988.63
2022-10-08T00:23:44.709Z,98756.44
2022-10-08T00:26:11.506Z,98787.81
2022-10-08T00:28:41.966Z,98783.03
2022-10-08T00:31:11.483Z,98783.78
2022-10-08T00:33:38.561Z,98809.41
2022-10-08T00:36:08.160Z,98919.72
2022-10-08T00:38:35.859Z,98774.56
2022-10-08T00:41:05.618Z,98805.88
2022-10-08T00:43:45.501Z,98872.84
2022-10-08T00:46:25.315Z,98902.19
2022-10-08T00:49:11.580Z,98766.44
2022-10-08T00:51:44.103Z,98760.16
2022-10-08T00:54:12.986Z,98942.03
2022-10-08T00:56:41.295Z,98774.72
2022-10-08T00:59:10.979Z,98958.28
2022-10-08T01:01:41.191Z,98885.56
2022-10-08T01:04:09.333Z,98894.78
2022-10-08T01:06:42.630Z,98927.66
2022-10-08T01:09:19.100Z,98828.03
2022-10-08T01:12:18.605Z,98912.16
2022-10-08T01:15:01.762Z,98728.09
2022-10-08T01:17:37.498Z,98947.97
2022-10-08T01:20:13.283Z,98913.44
2022-10-08T01:22:52.348Z,98934.31
2022-10-08T01:25:35.527Z,98773.44
2022-10-08T01:28:19.792Z,98720.16
2022-10-08T01:30:59.578Z,98755.75
2022-10-08T01:33:35.723Z,98847.72
2022-10-08T01:36:05.164Z,98831.69
2022-10-08T01:38:35.744Z,98632.06
2022-10-08T01:41:08.235Z,98703.56
2022-10-08T01:43:40.436Z,98759.41
2022-10-08T01:46:22.381Z,98881.13
2022-10-08T01:48:51.998Z,98842.19
2022-10-08T01:51:27.339Z,98838.69
2022-10-08T01:53:55.309Z,98684.03
2022-10-08T01:56:27.047Z,98869.69
2022-10-08T01:59:03.737Z,98906.25
2022-10-08T02:02:01.467Z,98883.88
2022-10-08T02:04:33.840Z,98829.47
2022-10-08T02:07:15.348Z,98725.13
2022-10-08T02:09:48.037Z,98838.69
2022-10-08T02:12:14.938Z,98868.19
2022-10-08T02:14:47.104Z,98871.72
2022-10-08T02:17:33.046Z,98879.47
2022-10-08T02:20:02.833Z,98905.50
2022-10-08T02:22:45.601Z,98829.13
2022-10-08T02:25:24.524Z,98883.00
2022-10-08T02:28:28.326Z,98875.22
2022-10-08T02:31:04.908Z,98687.16
2022-10-08T02:33:37.889Z,98816.75
2022-10-08T02:36:08.172Z,98762.75
2022-10-08T02:38:41.261Z,98864.53
2022-10-08T02:41:11.385Z,98759.97
2022-10-08T02:43:45.227Z,98851.97
2022-10-08T02:46:17.736Z,98871.19
2022-10-08T02:48:51.087Z,98860.84
2022-10-08T02:51:18.772Z,98796.66
2022-10-08T02:53:47.576Z,98671.31
2022-10-08T02:56:37.724Z,98858.63
2022-10-08T02:59:05.592Z,98815.84
2022-10-08T03:01:48.808Z,98818.59
2022-10-08T03:04:26.039Z,98700.78
2022-10-08T03:06:54.157Z,98840.91
2022-10-08T03:09:22.781Z,98730.47
2022-10-08T03:11:50.327Z,98690.66
2022-10-08T03:14:20.297Z,98774.19
2022-10-08T03:16:48.174Z,98673.16
2022-10-08T03:19:16.722Z,98671.66
2022-10-08T03:21:45.534Z,98857.53
2022-10-08T03:24:14.521Z,98822.06
2022-10-08T03:26:41.715Z,98696.91
2022-10-08T03:29:09.171Z,98774.91
2022-10-08T03:31:36.250Z,98651.41
2022-10-08T03:34:02.992Z,98689.38
2022-10-08T03:36:30.433Z,98787.78
2022-10-08T03:38:57.472Z,98637.03
2022-10-08T03:41:25.503Z,98683.44
2022-10-08T03:43:52.337Z,98846.75
2022-10-08T03:46:19.340Z,98666.84
2022-10-08T03:48:49.683Z,98756.00
2022-10-08T03:51:18.374Z,98826.06
2022-10-08T03:53:45.912Z,98820.88
2022-10-08T03:56:15.465Z,98850.28
2022-10-08T03:58:43.021Z,98668.31
2022-10-08T04:01:17.791Z,98641.78
2022-10-08T04:03:45.451Z,98641.06
2022-10-08T04:06:12.696Z,98758.56
2022-10-08T04:08:40.092Z,98824.19
2022-10-08T04:11:10.110Z,98757.88
2022-10-08T04:13:38.125Z,98835.66
2022-10-08T04:16:10.856Z,98817.22
2022-10-08T04:18:38.034Z,98662.03
2022-10-08T04:21:08.491Z,98842.69
2022-10-08T04:23:37.912Z,98816.06
2022-10-08T04:26:05.329Z,98802.06
2022-10-08T04:28:37.547Z,98648.81
2022-10-08T04:31:08.625Z,98778.47
2022-10-08T04:33:36.437Z,98799.84
2022-10-08T04:36:12.063Z,98849.69
2022-10-08T04:38:39.331Z,98814.28
2022-10-08T04:41:06.797Z,98810.56
2022-10-08T04:43:35.335Z,98802.44
2022-10-08T04:46:03.183Z,98838.63
2022-10-08T04:48:30.362Z,98811.13
2022-10-08T04:50:59.172Z,98773.00
2022-10-08T04:53:26.965Z,98798.34
2022-10-08T04:55:55.167Z,98609.00
2022-10-08T04:58:23.339Z,98614.16
2022-10-08T05:00:50.727Z,98780.13
2022-10-08T05:03:17.801Z,98805.53
2022-10-08T05:05:46.459Z,98764.03
2022-10-08T05:08:13.871Z,98813.06
2022-10-08T05:10:48.366Z,98628.50
2022-10-08T05:13:15.389Z,98697.72
2022-10-08T05:15:42.458Z,98625.16
2022-10-08T05:18:10.289Z,98773.94
2022-10-08T05:20:38.040Z,98759.22
2022-10-08T05:23:05.115Z,98657.53
2022-10-08T05:25:33.482Z,98843.31
2022-10-08T05:28:01.573Z,98782.59
2022-10-08T05:30:28.425Z,98692.53
2022-10-08T05:32:55.433Z,98818.88
2022-10-08T05:35:22.447Z,98707.56
2022-10-08T05:37:49.279Z,98804.28
2022-10-08T05:40:16.336Z,98778.09
2022-10-08T05:42:43.427Z,98792.75
2022-10-08T05:45:10.875Z,98719.78
2022-10-08T05:47:38.270Z,98802.34
2022-10-08T05:50:06.026Z,98759.19
2022-10-08T05:52:33.021Z,98664.09
2022-10-08T05:55:00.453Z,98776.16
2022-10-08T05:57:28.146Z,98787.66
2022-10-08T05:59:55.060Z,98822.78
2022-10-08T06:02:22.318Z,98754.22
2022-10-08T06:04:50.391Z,98646.16
2022-10-08T06:07:17.318Z,98684.94
2022-10-08T06:09:45.253Z,98773.25
2022-10-08T06:12:13.914Z,98751.97
2022-10-08T06:14:41.187Z,98646.69
2022-10-08T06:17:08.034Z,98835.13
2022-10-08T06:19:37.336Z,98833.22
2022-10-08T06:22:05.125Z,98814.47
2022-10-08T06:24:32.476Z,98667.84
2022-10-08T06:26:59.547Z,98784.56
2022-10-08T06:29:26.802Z,98765.19
2022-10-08T06:31:53.821Z,98815.38
2022-10-08T06:34:22.011Z,98811.59
2022-10-08T06:36:50.215Z,98829.16
2022-10-08T06:39:18.452Z,98824.91
2022-10-08T06:41:45.510Z,98811.41
2022-10-08T06:44:14.566Z,98730.88
2022-10-08T06:46:42.459Z,98816.53
2022-10-08T06:49:10.435Z,98824.44
2022-10-08T06:51:38.350Z,98798.88
2022-10-08T06:54:08.299Z,98743.59
2022-10-08T06:56:37.500Z,98819.06
2022-10-08T06:59:06.598Z,98723.78
2022-10-08T07:01:35.806Z,98767.78
2022-10-08T07:04:05.120Z,98780.69
2022-10-08T07:06:36.509Z,98815.66
2022-10-08T07:09:04.923Z,98806.97
2022-10-08T07:11:33.668Z,98809.00
2022-10-08T07:14:00.987Z,98658.06
2022-10-08T07:16:28.576Z,98815.56
2022-10-08T07:18:58.084Z,98797.44
2022-10-08T07:21:25.635Z,98773.19
2022-10-08T07:23:52.953Z,98760.78
2022-10-08T07:26:25.263Z,98805.56
2022-10-08T07:28:55.346Z,98633.72
2022-10-08T07:31:27.117Z,98596.66
2022-10-08T07:33:54.273Z,98728.41
2022-10-08T07:36:23.265Z,98759.47
2022-10-08T07:39:03.860Z,98796.00
2022-10-08T07:41:32.024Z,98785.81
2022-10-08T07:44:00.841Z,98796.44
2022-10-08T07:46:29.545Z,98781.13
2022-10-08T07:48:59.211Z,98765.97
2022-10-08T07:51:28.038Z,98779.38
2022-10-08T07:54:00.240Z,98778.44
2022-10-08T07:56:30.319Z,98612.91
2022-10-08T07:58:58.857Z,98757.53
2022-10-08T08:01:28.533Z,98714.03
2022-10-08T08:04:07.306Z,98717.06
2022-10-08T08:06:41.608Z,98762.53
2022-10-08T08:09:09.163Z,98691.38
2022-10-08T08:11:36.523Z,98727.50
2022-10-08T08:14:03.826Z,98762.88
2022-10-08T08:16:30.759Z,98770.19
2022-10-08T08:19:01.301Z,98596.00
2022-10-08T08:21:36.386Z,98688.19
2022-10-08T08:24:06.218Z,98750.59
2022-10-08T08:26:36.037Z,98758.13
2022-10-08T08:29:08.887Z,98749.97
2022-10-08T08:31:39.400Z,98697.84
2022-10-08T08:34:12.807Z,98596.56
2022-10-08T08:36:43.913Z,98712.72
2022-10-08T08:39:19.758Z,98592.06
2022-10-08T08:41:52.948Z,98784.34
2022-10-08T08:44:39.254Z,98711.50
2022-10-08T08:47:08.308Z,98750.72
2022-10-08T08:49:49.821Z,98691.91
2022-10-08T08:52:19.432Z,98588.06
2022-10-08T08:54:49.562Z,98701.78
2022-10-08T08:57:30.231Z,98723.63
2022-10-08T09:00:03.751Z,98553.28
2022-10-08T09:02:51.562Z,98733.34
2022-10-08T09:05:20.204Z,98750.91
2022-10-08T09:07:56.684Z,98726.97
2022-10-08T09:10:39.209Z,98703.16
2022-10-08T09:13:14.368Z,98546.22
2022-10-08T09:15:43.005Z,98760.38
2022-10-08T09:18:13.101Z,98580.00
2022-10-08T09:20:40.788Z,98689.47
2022-10-08T09:23:15.320Z,98765.41
2022-10-08T09:25:44.540Z,98719.59
2022-10-08T09:28:11.570Z,98723.66
2022-10-08T09:30:41.468Z,98728.25
2022-10-08T09:33:16.329Z,98749.69
2022-10-08T09:35:44.963Z,98586.19
2022-10-08T09:38:27.006Z,98718.66
2022-10-08T09:41:20.349Z,98721.16
2022-10-08T09:44:15.867Z,98549.88
2022-10-08T09:46:43.198Z,98655.88
2022-10-08T09:49:32.468Z,98565.03
2022-10-08T09:52:05.857Z,98548.31
2022-10-08T09:55:22.570Z,98708.75
2022-10-08T09:58:00.475Z,98665.59
2022-10-08T10:00:35.351Z,98682.16
2022-10-08T10:03:05.646Z,98708.16
2022-10-08T10:05:35.015Z,98688.72
2022-10-08T10:08:02.362Z,98678.41
2022-10-08T10:10:40.451Z,98646.06
2022-10-08T10:13:27.964Z,98506.66
2022-10-08T10:16:40.197Z,98672.66
2022-10-08T10:19:15.736Z,98562.81
2022-10-08T10:22:04.873Z,98660.56
2022-10-08T10:24:50.293Z,98647.66
2022-10-08T10:27:40.544Z,98654.31
2022-10-08T10:30:17.136Z,98645.59
2022-10-08T10:32:56.139Z,98524.25
2022-10-08T10:35:28.427Z,98638.06
2022-10-08T10:38:09.486Z,98641.19
2022-10-08T10:40:42.455Z,98493.06
2022-10-08T10:43:52.981Z,98638.78
2022-10-08T10:46:25.254Z,98661.34
2022-10-08T10:48:52.253Z,98608.69
2022-10-08T10:51:50.553Z,98575.41
2022-10-08T10:54:23.008Z,98626.72
2022-10-08T10:56:56.969Z,98591.44
2022-10-08T11:00:03.647Z,98624.19
2022-10-08T11:02:42.177Z,98479.06
2022-10-08T11:05:33.139Z,98607.53
2022-10-08T11:08:30.557Z,98609.16
2022-10-08T11:11:09.664Z,98605.00
2022-10-08T11:13:55.260Z,98597.97
2022-10-08T11:16:37.556Z,98631.22
2022-10-08T11:19:11.635Z,98601.44
2022-10-08T11:21:48.091Z,98589.91
2022-10-08T11:24:23.956Z,98603.38
2022-10-08T11:27:12.804Z,98580.22
2022-10-08T11:29:52.231Z,98527.81
2022-10-08T11:32:20.479Z,98570.13
2022-10-08T11:35:00.950Z,98567.69
2022-10-08T11:37:27.791Z,98570.69
2022-10-08T11:40:10.550Z,98582.75
2022-10-08T11:42:48.512Z,98548.38
2022-10-08T11:45:25.819Z,98555.44
2022-10-08T11:47:54.902Z,98534.00
2022-10-08T11:50:32.245Z,98423.81
2022-10-08T11:53:21.026Z,98535.44
2022-10-08T11:55:57.163Z,98519.66
2022-10-08T11:58:32.647Z,98534.63
2022-10-08T12:01:07.891Z,98532.63
2022-10-08T12:03:41.043Z,98381.19
2022-10-08T12:06:35.891Z,98371.03
2022-10-08T12:09:07.758Z,98532.22
2022-10-08T12:11:43.392Z,98522.41
2022-10-08T12:14:14.431Z,98528.03
2022-10-08T12:16:47.593Z,98528.03
2022-10-08T12:19:33.087Z,98385.69
2022-10-08T12:22:02.065Z,98514.03
2022-10-08T12:24:38.238Z,98521.13
2022-10-08T12:27:17.762Z,98455.56
2022-10-08T12:30:12.112Z,98500.78
2022-10-08T12:32:42.273Z,98500.22
2022-10-08T12:35:35.922Z,98345.25
2022-10-08T12:38:13.775Z,98493.31
2022-10-08T12:40:56.941Z,98485.97
2022-10-08T12:43:51.635Z,98355.56
2022-10-08T12:46:40.009Z,98480.69
2022-10-08T12:49:25.169Z,98482.78
2022-10-08T12:52:04.566Z,98473.59
2022-10-08T12:54:32.985Z,98474.22
2022-10-08T12:57:07.176Z,98441.56
2022-10-08T12:59:34.235Z,98466.41
2022-10-08T13:02:01.439Z,98250.56
2022-10-08T13:04:33.990Z,98472.41
2022-10-08T13:07:19.231Z,98432.13
2022-10-08T13:09:46.225Z,98447.53
2022-10-08T13:12:13.077Z,98313.44
2022-10-08T13:14:40.462Z,98342.34
2022-10-08T13:17:30.292Z,98459.16
2022-10-08T13:20:17.019Z,98286.53
2022-10-08T13:22:44.827Z,98310.09
2022-10-08T13:25:35.269Z,98451.75
2022-10-08T13:28:16.131Z,98481.28
2022-10-08T13:30:46.953Z,98445.84
2022-10-08T13:33:20.670Z,98383.16
2022-10-08T13:35:52.333Z,98447.31
2022-10-08T13:38:27.088Z,98436.69
2022-10-08T13:40:58.762Z,98394.06
2022-10-08T13:43:26.439Z,98425.09
2022-10-08T13:45:53.385Z,98416.94
2022-10-08T13:48:20.434Z,98383.56
2022-10-08T13:50:50.282Z,98316.97
2022-10-08T13:53:22.182Z,98420.00
2022-10-08T13:55:50.463Z,98291.06
2022-10-08T13:58:19.825Z,98458.41
2022-10-08T14:00:47.892Z,98376.16
2022-10-08T14:03:15.135Z,98361.56
2022-10-08T14:05:45.423Z,98391.97
2022-10-08T14:08:28.273Z,98293.97
2022-10-08T14:10:58.307Z,98330.38
2022-10-08T14:13:25.692Z,98420.19
2022-10-08T14:15:52.741Z,98324.28
2022-10-08T14:18:19.716Z,98417.59
2022-10-08T14:20:50.632Z,98401.25
2022-10-08T14:23:17.607Z,98410.66
2022-10-08T14:25:44.490Z,98392.50
2022-10-08T14:28:11.331Z,98275.28
2022-10-08T14:30:38.121Z,98395.44
2022-10-08T14:33:10.277Z,98260.59
2022-10-08T14:35:38.188Z,98241.03
2022-10-08T14:38:05.045Z,98273.63
2022-10-08T14:40:31.969Z,98339.75
2022-10-08T14:42:58.859Z,98247.38
2022-10-08T14:45:26.025Z,98224.00
2022-10-08T14:47:52.846Z,98383.66
2022-10-08T14:50:19.778Z,98408.63
2022-10-08T14:52:47.283Z,98370.44
2022-10-08T14:55:14.854Z,98323.13
2022-10-08T14:57:41.818Z,98274.56
2022-10-08T15:00:09.197Z,98202.72
2022-10-08T15:02:36.304Z,98352.31
2022-10-08T15:05:03.319Z,98387.31
2022-10-08T15:07:30.876Z,98379.91
2022-10-08T15:09:57.934Z,98295.59
2022-10-08T15:12:25.077Z,98248.84
2022-10-08T15:14:51.883Z,98393.44
2022-10-08T15:17:18.678Z,98238.84
2022-10-08T15:19:45.628Z,98410.59
2022-10-08T15:22:12.869Z,98405.34
2022-10-08T15:24:39.814Z,98358.16
2022-10-08T15:27:06.756Z,98255.03
2022-10-08T15:29:33.561Z,98259.00
2022-10-08T15:32:00.457Z,98346.28
2022-10-08T15:34:27.437Z,98401.09
2022-10-08T15:36:56.032Z,98368.88
2022-10-08T15:39:22.993Z,98398.94
2022-10-08T15:41:54.446Z,98376.50
2022-10-08T15:44:28.977Z,98399.03
2022-10-08T15:47:02.566Z,98400.81
2022-10-08T15:49:31.299Z,98292.66
2022-10-08T15:51:58.640Z,98405.94
2022-10-08T15:54:25.859Z,98399.41
2022-10-08T15:56:52.685Z,98252.19
2022-10-08T15:59:19.683Z,98360.28
2022-10-08T16:01:46.539Z,98417.50
2022-10-08T16:04:14.395Z,98393.53
2022-10-08T16:06:47.797Z,98288.84
2022-10-08T16:09:16.707Z,98270.47
2022-10-08T16:11:44.482Z,98442.25
2022-10-08T16:14:14.431Z,98278.22
2022-10-08T16:16:42.551Z,98273.63
2022-10-08T16:19:18.368Z,98426.88
2022-10-08T16:21:47.435Z,98428.22
2022-10-08T16:24:15.361Z,98434.97
2022-10-08T16:26:43.586Z,98448.66
2022-10-08T16:29:13.017Z,98459.19
2022-10-08T16:31:41.720Z,98234.03
2022-10-08T16:34:13.721Z,98427.38
2022-10-08T16:36:40.975Z,98448.50
2022-10-08T16:39:10.063Z,98279.47
2022-10-08T16:41:38.014Z,98438.50
2022-10-08T16:44:12.675Z,98294.31
2022-10-08T16:46:42.632Z,98446.38
2022-10-08T16:49:28.176Z,98281.47
2022-10-08T16:52:05.544Z,98249.59
2022-10-08T16:54:33.253Z,98390.50
2022-10-08T16:57:00.870Z,98285.41
2022-10-08T16:59:29.843Z,98446.88
2022-10-08T17:01:59.684Z,98456.84
2022-10-08T17:04:29.403Z,98293.56
2022-10-08T17:06:56.816Z,98457.38
2022-10-08T17:09:23.742Z,98487.06
2022-10-08T17:11:50.725Z,98419.00
2022-10-08T17:14:17.541Z,98456.88
2022-10-08T17:16:48.966Z,98459.59
2022-10-08T17:19:18.026Z,98462.25
2022-10-08T17:21:45.161Z,98464.94
2022-10-08T17:24:12.764Z,98375.78
2022-10-08T17:26:40.332Z,98449.63
2022-10-08T17:29:10.243Z,98491.22
2022-10-08T17:31:38.151Z,98470.06
2022-10-08T17:34:06.336Z,98482.47
2022-10-08T17:36:36.331Z,98309.22
2022-10-08T17:39:05.824Z,98463.50
2022-10-08T17:41:37.953Z,98413.47
2022-10-08T17:44:07.279Z,98467.53
2022-10-08T17:46:39.932Z,98300.94
2022-10-08T17:49:06.915Z,98434.97
2022-10-08T17:51:34.435Z,98291.72
2022-10-08T17:54:04.167Z,98377.47
2022-10-08T17:56:31.636Z,98339.56
2022-10-08T17:58:58.960Z,98297.25
2022-10-08T18:01:29.918Z,98486.41
2022-10-08T18:04:03.051Z,98465.84
2022-10-08T18:06:31.290Z,98426.97
2022-10-08T18:09:01.124Z,98463.41
2022-10-08T18:11:30.677Z,98462.56
2022-10-08T18:13:58.189Z,98465.13
2022-10-08T18:16:28.064Z,98373.53
2022-10-08T18:18:55.340Z,98438.94
2022-10-08T18:21:22.565Z,98301.56
2022-10-08T18:23:49.951Z,98333.13
2022-10-08T18:26:20.932Z,98467.25
2022-10-08T18:28:56.462Z,98465.94
2022-10-08T18:31:26.907Z,98449.31
2022-10-08T18:34:00.199Z,98452.66
2022-10-08T18:36:30.260Z,98465.41
2022-10-08T18:39:03.230Z,98459.56
2022-10-08T18:41:32.927Z,98426.00
2022-10-08T18:44:00.737Z,98418.00
2022-10-08T18:46:28.537Z,98370.25
2022-10-08T18:48:55.974Z,98294.81
2022-10-08T18:51:25.827Z,98298.66
2022-10-08T18:53:55.050Z,98470.66
2022-10-08T18:56:28.733Z,98392.28
2022-10-08T18:59:01.755Z,98476.19
2022-10-08T19:01:34.665Z,98474.59
2022-10-08T19:04:04.418Z,98478.34
2022-10-08T19:06:35.013Z,98311.28
2022-10-08T19:09:03.282Z,98316.31
2022-10-08T19:11:33.735Z,98479.94
2022-10-08T19:14:01.686Z,98336.47
2022-10-08T19:16:29.141Z,98517.25
2022-10-08T19:18:57.179Z,98502.00
2022-10-08T19:21:26.463Z,98408.97
2022-10-08T19:23:54.152Z,98345.91
2022-10-08T19:26:21.017Z,98490.16
2022-10-08T19:28:50.969Z,98485.66
2022-10-08T19:31:19.413Z,98477.50
2022-10-08T19:33:58.147Z,98323.50
2022-10-08T19:36:27.204Z,98531.66
2022-10-08T19:38:59.364Z,98316.81
2022-10-08T19:41:27.681Z,98491.97
2022-10-08T19:43:56.448Z,98476.78
2022-10-08T19:46:24.434Z,98472.09
2022-10-08T19:48:56.501Z,98359.94
2022-10-08T19:51:24.792Z,98465.66
2022-10-08T19:53:52.288Z,98404.09
2022-10-08T19:56:20.632Z,98534.06
2022-10-08T19:58:49.690Z,98510.41
2022-10-08T20:01:20.324Z,98341.81
2022-10-08T20:03:47.669Z,98464.66
2022-10-08T20:06:21.700Z,98502.25
2022-10-08T20:08:50.283Z,98330.00
2022-10-08T20:11:19.226Z,98479.31
2022-10-08T20:13:48.039Z,98528.69
2022-10-08T20:16:18.081Z,98511.44
2022-10-08T20:18:53.365Z,98502.50
2022-10-08T20:21:21.480Z,98427.50
2022-10-08T20:23:48.715Z,98372.66
2022-10-08T20:26:23.127Z,98528.22
2022-10-08T20:28:53.118Z,98518.75
2022-10-08T20:31:27.184Z,98533.56
2022-10-08T20:33:59.027Z,98498.53
2022-10-08T20:36:26.230Z,98518.47
2022-10-08T20:38:53.722Z,98447.88
2022-10-08T20:41:23.487Z,98420.22
2022-10-08T20:43:55.933Z,98443.19
2022-10-08T20:46:23.015Z,98393.28
2022-10-08T20:48:49.877Z,98505.59
2022-10-08T20:51:20.033Z,98540.00
2022-10-08T20:53:55.409Z,98371.34
2022-10-08T20:56:22.635Z,98355.69
2022-10-08T20:58:49.775Z,98359.06
2022-10-08T21:01:24.779Z,98367.13
2022-10-08T21:03:52.791Z,98377.03
2022-10-08T21:06:22.437Z,98543.66
2022-10-08T21:08:51.396Z,98519.50
2022-10-08T21:11:21.005Z,98543.97
2022-10-08T21:13:48.507Z,98365.34
2022-10-08T21:16:18.080Z,98355.53
2022-10-08T21:18:49.495Z,98351.16
2022-10-08T21:21:16.922Z,98522.88
2022-10-08T21:23:45.206Z,98507.22
2022-10-08T21:26:15.095Z,98347.94
2022-10-08T21:28:44.170Z,98523.03
2022-10-08T21:31:11.915Z,98408.53
2022-10-08T21:33:40.742Z,98516.56
2022-10-08T21:36:11.993Z,98508.09
2022-10-08T21:38:38.858Z,98432.53
2022-10-08T21:41:12.530Z,98352.00
2022-10-08T21:43:40.920Z,98532.41
2022-10-08T21:46:10.397Z,98341.44
2022-10-08T21:48:38.255Z,98533.25
2022-10-08T21:51:08.426Z,98369.69
2022-10-08T21:53:37.514Z,98511.59
2022-10-08T21:56:10.672Z,98474.25
2022-10-08T21:58:39.904Z,98346.38
2022-10-08T22:01:08.630Z,98509.53
2022-10-08T22:03:35.491Z,98519.66
2022-10-08T22:06:04.638Z,98524.47
2022-10-08T22:08:31.838Z,98523.75
2022-10-08T22:10:58.829Z,98524.03
2022-10-08T22:13:25.783Z,98490.78
2022-10-08T22:15:57.123Z,98534.13
2022-10-08T22:18:25.326Z,98517.88
2022-10-08T22:20:52.959Z,98339.66
2022-10-08T22:23:20.635Z,98373.19
2022-10-08T22:26:01.522Z,98484.16
2022-10-08T22:28:29.018Z,98501.75
2022-10-08T22:30:58.799Z,98486.66
2022-10-08T22:33:25.960Z,98339.69
2022-10-08T22:35:52.909Z,98336.63
2022-10-08T22:38:19.728Z,98518.44
2022-10-08T22:40:46.583Z,98494.84
2022-10-08T22:43:13.390Z,98339.88
2022-10-08T22:45:41.560Z,98514.19
2022-10-08T22:48:08.500Z,98492.50
2022-10-08T22:50:36.099Z,98474.19
2022-10-08T22:53:02.872Z,98485.47
2022-10-08T22:55:29.781Z,98510.94
2022-10-08T22:57:56.738Z,98539.22
2022-10-08T23:00:23.655Z,98495.41
2022-10-08T23:02:50.817Z,98543.75
2022-10-08T23:05:17.854Z,98369.38
2022-10-08T23:07:44.675Z,98513.00
2022-10-08T23:10:11.496Z,98334.97
2022-10-08T23:12:38.295Z,98418.56
2022-10-08T23:15:05.524Z,98333.03
2022-10-08T23:17:32.418Z,98326.44
2022-10-08T23:19:59.277Z,98395.75
2022-10-08T23:22:26.190Z,98486.75
2022-10-08T23:24:53.078Z,98338.00
2022-10-08T23:27:20.305Z,98510.63
2022-10-08T23:29:47.310Z,98337.69
2022-10-08T23:32:14.133Z,98517.06
2022-10-08T23:34:41.029Z,98524.38
2022-10-08T23:37:07.874Z,98338.84
2022-10-08T23:39:34.730Z,98511.78
2022-10-08T23:42:01.512Z,98368.72
2022-10-08T23:44:28.327Z,98432.72
2022-10-08T23:46:55.136Z,98533.41
2022-10-08T23:49:21.873Z,98493.59
2022-10-08T23:51:48.818Z,98512.34
2022-10-08T23:54:15.597Z,98426.97
2022-10-08T23:56:42.461Z,98455.84
2022-10-08T23:59:09.505Z,98474.75
